Time;durP1;ratioP1;P1;durP2;ratioP2;P2;SDS_P1;SDS_P2;PMS_P1;PMS_P2;Temp;Humidity;BMP_temperature;BMP_pressure;BME280_temperature;BME280_humidity;BME280_pressure;Samples;Min_cycle;Max_cycle;Signal;HPM_P1;HPM_P2
2021/06/14 00:00:11;;;;;;;5.40;2.30;;;;;;;9.93;78.21;100966.02;102136;1117;80233;-67
2021/06/14 00:02:43;;;;;;;6.40;2.40;;;;;;;9.90;78.45;100966.36;102166;1117;67832;-67
2021/06/14 00:04:51;;;;;;;5.30;2.10;;;;;;;9.83;78.86;100970.74;102193;1118;67722;-64
2021/06/14 00:06:59;;;;;;;6.40;2.80;;;;;;;9.79;78.31;100976.66;102133;1117;83490;-66
2021/06/14 00:09:08;;;;;;;4.00;2.20;;;;;;;9.76;78.55;100979.70;102131;1118;75358;-66
2021/06/14 00:11:16;;;;;;;4.70;2.30;;;;;;;9.74;78.37;100973.63;102163;1117;80943;-66
2021/06/14 00:13:26;;;;;;;6.20;2.40;;;;;;;9.72;78.65;100975.67;102169;1118;65909;-68
2021/06/14 00:15:35;;;;;;;5.00;2.20;;;;;;;9.68;78.53;100971.61;102183;1117;68642;-68
2021/06/14 00:17:42;;;;;;;4.50;2.20;;;;;;;9.65;78.37;100980.88;102165;1118;85919;-69
2021/06/14 00:19:53;;;;;;;5.10;2.20;;;;;;;9.61;78.77;100974.16;102165;1118;75745;-68
2021/06/14 00:22:01;;;;;;;6.50;1.90;;;;;;;9.57;78.56;100971.95;102149;1118;81536;-69
2021/06/14 00:24:13;;;;;;;5.60;2.00;;;;;;;9.55;78.58;100974.83;102158;1117;65972;-69
2021/06/14 00:26:21;;;;;;;6.20;2.20;;;;;;;9.48;78.71;100973.80;102149;1117;68026;-69
2021/06/14 00:28:29;;;;;;;5.40;2.10;;;;;;;9.42;78.89;100978.01;102186;1117;84100;-66
2021/06/14 00:30:41;;;;;;;13.50;3.30;;;;;;;9.40;79.17;100971.10;102179;1117;74319;-66
2021/06/14 00:32:49;;;;;;;3.70;2.10;;;;;;;9.37;78.95;100972.28;102140;1117;80886;-66
2021/06/14 00:35:00;;;;;;;3.80;1.90;;;;;;;9.38;79.23;100973.13;102137;1117;66926;-66
2021/06/14 00:37:08;;;;;;;4.30;1.90;;;;;;;9.36;79.21;100975.16;102180;1118;67459;-66
2021/06/14 00:39:15;;;;;;;3.60;2.00;;;;;;;9.40;79.38;100973.80;102195;1118;83729;-66
2021/06/14 00:41:23;;;;;;;5.10;2.50;;;;;;;9.41;79.09;100967.41;102153;1117;73586;-66
2021/06/14 00:43:32;;;;;;;6.90;2.00;;;;;;;9.44;79.54;100972.47;102133;1118;80555;-68
2021/06/14 00:45:45;;;;;;;5.50;2.70;;;;;;;9.49;79.40;100967.41;102144;1117;67255;-69
2021/06/14 00:47:56;;;;;;;4.80;2.30;;;;;;;9.50;79.22;100969.10;102201;1118;69318;-70
2021/06/14 00:50:05;;;;;;;5.20;1.80;;;;;;;9.53;79.65;100967.92;102155;1116;84647;-65
2021/06/14 00:52:13;;;;;;;5.20;1.90;;;;;;;9.55;79.65;100955.95;102191;1117;73462;-66
2021/06/14 00:54:21;;;;;;;3.60;2.00;;;;;;;9.55;79.49;100964.04;102154;1118;81679;-69
2021/06/14 00:56:29;;;;;;;4.70;1.90;;;;;;;9.55;79.48;100968.59;102146;1116;69161;-70
2021/06/14 00:58:37;;;;;;;4.30;2.00;;;;;;;9.60;79.78;100963.52;102144;1117;67784;-65
2021/06/14 01:00:48;;;;;;;8.30;2.00;;;;;;;9.65;79.71;100971.94;102176;1117;84337;-66
2021/06/14 01:02:56;;;;;;;4.20;2.10;;;;;;;9.70;79.87;100973.13;102166;1118;73930;-68
2021/06/14 01:05:09;;;;;;;5.50;2.00;;;;;;;9.73;79.82;100966.54;102145;1118;80658;-69
2021/06/14 01:07:17;;;;;;;6.20;1.90;;;;;;;9.73;79.71;100972.78;102151;1117;69295;-70
2021/06/14 01:09:25;;;;;;;5.50;2.00;;;;;;;9.78;79.75;100975.00;102160;1117;68089;-70
2021/06/14 01:11:41;;;;;;;5.90;2.40;;;;;;;9.83;79.74;100975.32;102148;1118;85433;-70
2021/06/14 01:14:00;;;;;;;3.90;1.90;;;;;;;9.83;79.90;100972.63;102162;1117;75128;-69
2021/06/14 01:16:24;;;;;;;6.50;2.00;;;;;;;9.87;79.61;100979.34;102183;1117;81635;-69
2021/06/14 01:18:42;;;;;;;5.30;1.80;;;;;;;9.89;79.85;100980.01;102153;1117;66745;-69
2021/06/14 01:21:00;;;;;;;5.40;2.00;;;;;;;9.92;79.74;100976.97;102195;1117;68004;-69
2021/06/14 01:23:31;;;;;;;4.30;2.20;;;;;;;9.92;79.88;100975.13;102155;1117;83277;-69
2021/06/14 01:25:53;;;;;;;4.90;1.80;;;;;;;9.92;80.00;100977.82;102167;1117;75392;-69
2021/06/14 01:28:02;;;;;;;4.70;1.80;;;;;;;9.95;80.02;100976.64;102168;1118;81538;-66
2021/06/14 01:30:14;;;;;;;5.00;1.90;;;;;;;9.97;79.91;100972.75;102174;1118;68242;-66
2021/06/14 01:32:25;;;;;;;6.60;2.00;;;;;;;9.99;79.71;100978.84;102197;1117;69428;-65
2021/06/14 01:34:41;;;;;;;5.80;2.20;;;;;;;10.00;80.05;100975.11;102169;1117;84540;-67
2021/06/14 01:36:49;;;;;;;6.80;2.30;;;;;;;10.01;79.96;100968.70;102203;1118;74430;-68
2021/06/14 01:38:59;;;;;;;5.70;2.50;;;;;;;10.02;79.80;100969.55;102173;1118;81518;-68
2021/06/14 01:41:11;;;;;;;5.50;1.80;;;;;;;10.00;79.72;100972.41;102147;1118;68094;-67
2021/06/14 01:43:23;;;;;;;4.90;1.90;;;;;;;10.00;79.92;100969.70;102166;1117;67823;-66
2021/06/14 01:45:33;;;;;;;4.40;1.70;;;;;;;9.94;79.89;100973.09;102163;1118;84669;-65
2021/06/14 01:47:41;;;;;;;3.80;1.80;;;;;;;9.96;79.72;100975.63;102188;1117;74230;-65
2021/06/14 01:49:49;;;;;;;8.10;2.00;;;;;;;9.95;79.96;100977.48;102161;1117;81097;-67
2021/06/14 01:52:00;;;;;;;4.30;1.80;;;;;;;9.95;79.94;100987.43;102136;1118;67844;-67
2021/06/14 01:54:10;;;;;;;4.70;1.90;;;;;;;9.94;79.82;100980.37;102197;1116;68795;-67
2021/06/14 01:56:17;;;;;;;5.60;2.20;;;;;;;9.94;79.88;100981.19;102204;1117;83676;-67
2021/06/14 01:58:30;;;;;;;6.60;1.90;;;;;;;9.94;79.91;100980.37;102141;1117;73924;-66
2021/06/14 02:00:43;;;;;;;5.20;1.90;;;;;;;9.92;79.90;100982.38;102148;1116;80883;-67
2021/06/14 02:02:53;;;;;;;6.40;2.80;;;;;;;9.95;79.81;100982.88;102182;1118;68476;-66
2021/06/14 02:05:06;;;;;;;3.60;1.70;;;;;;;9.96;80.04;100983.73;102183;1117;67651;-65
2021/06/14 02:07:14;;;;;;;5.10;1.80;;;;;;;9.98;80.09;100985.24;102185;1117;84025;-65
2021/06/14 02:09:25;;;;;;;6.80;2.00;;;;;;;9.95;79.91;100982.88;102166;1117;74468;-66
2021/06/14 02:11:36;;;;;;;6.60;1.80;;;;;;;9.93;79.79;100984.07;102150;1118;80491;-66
2021/06/14 02:13:44;;;;;;;7.20;2.00;;;;;;;9.93;79.79;100982.22;102172;1117;68604;-66
2021/06/14 02:15:54;;;;;;;5.10;1.90;;;;;;;9.93;79.73;100976.82;102176;1118;68869;-67
2021/06/14 02:18:04;;;;;;;4.30;1.90;;;;;;;9.93;80.09;100974.13;102181;1117;83730;-65
2021/06/14 02:20:15;;;;;;;5.10;2.10;;;;;;;9.96;79.90;100973.78;102190;1118;75010;-66
2021/06/14 02:22:23;;;;;;;6.30;1.90;;;;;;;9.96;79.76;100976.48;102151;1117;81688;-66
2021/06/14 02:24:31;;;;;;;4.60;1.90;;;;;;;9.98;79.59;100979.84;102120;1117;68463;-66
2021/06/14 02:26:39;;;;;;;5.10;2.60;;;;;;;9.95;79.77;100972.09;102141;1118;68646;-66
2021/06/14 02:28:50;;;;;;;5.40;2.00;;;;;;;9.95;79.92;100971.23;102146;1118;84626;-66
2021/06/14 02:30:57;;;;;;;3.70;1.70;;;;;;;9.91;79.76;100978.01;102161;1118;75006;-66
2021/06/14 02:33:06;;;;;;;4.50;2.20;;;;;;;9.91;79.76;100980.70;102123;1117;82524;-66
2021/06/14 02:35:16;;;;;;;7.20;2.10;;;;;;;9.93;79.75;100989.47;102163;1118;68008;-66
2021/06/14 02:37:25;;;;;;;4.50;2.10;;;;;;;9.91;79.83;100986.95;102195;1118;68640;-67
2021/06/14 02:39:35;;;;;;;4.50;1.80;;;;;;;9.90;79.79;100990.66;102169;1118;85072;-67
2021/06/14 02:41:44;;;;;;;6.80;2.20;;;;;;;9.91;80.02;100992.35;102151;1117;73563;-67
2021/06/14 02:43:53;;;;;;;6.50;2.30;;;;;;;9.92;79.70;100983.22;102139;1117;81177;-65
2021/06/14 02:46:05;;;;;;;6.00;1.90;;;;;;;9.90;79.86;100987.95;102141;1117;68970;-65
2021/06/14 02:48:18;;;;;;;4.30;2.00;;;;;;;9.89;79.70;100988.95;102186;1118;68177;-67
2021/06/14 02:50:28;;;;;;;3.60;1.70;;;;;;;9.89;79.88;100988.95;102152;1118;85046;-67
2021/06/14 02:52:39;;;;;;;5.40;2.00;;;;;;;9.87;79.90;100990.99;102173;1118;74810;-67
2021/06/14 02:54:53;;;;;;;8.50;2.30;;;;;;;9.87;79.97;100995.54;102151;1117;81166;-65
2021/06/14 02:57:09;;;;;;;6.30;1.80;;;;;;;9.90;80.12;101000.59;102142;1117;67257;-64
2021/06/14 02:59:20;;;;;;;4.20;1.80;;;;;;;9.97;80.05;100996.22;102191;1117;68313;-68
2021/06/14 03:01:28;;;;;;;5.40;2.20;;;;;;;9.99;80.23;101003.13;102158;1118;85355;-69
2021/06/14 03:03:43;;;;;;;7.40;2.10;;;;;;;10.02;80.07;101018.14;102163;1118;74486;-65
2021/06/14 03:05:51;;;;;;;3.40;1.90;;;;;;;10.08;79.98;101020.13;102141;1118;81649;-64
2021/06/14 03:08:04;;;;;;;7.50;2.00;;;;;;;10.15;79.93;101020.34;102127;1118;68610;-68
2021/06/14 03:10:15;;;;;;;5.90;2.30;;;;;;;10.23;79.99;101012.22;102209;1118;69240;-68
2021/06/14 03:12:28;;;;;;;4.70;1.80;;;;;;;10.30;80.34;101024.03;102160;1117;85028;-68
2021/06/14 03:14:36;;;;;;;;;;;;;;;10.37;80.24;101023.16;102149;1118;75367;-65
2021/06/14 03:16:47;;;;;;;5.70;2.40;;;;;;;10.43;79.95;101032.44;102137;1117;80622;-65
2021/06/14 03:18:59;;;;;;;3.50;1.70;;;;;;;10.52;80.11;101028.70;102131;1118;68719;-65
2021/06/14 03:21:08;;;;;;;4.20;1.70;;;;;;;10.59;80.18;101025.13;102152;1118;67713;-65
2021/06/14 03:23:19;;;;;;;5.80;2.50;;;;;;;10.66;80.15;101019.84;102190;1118;83417;-68
2021/06/14 03:25:27;;;;;;;7.10;2.30;;;;;;;10.91;80.28;101017.88;102146;1118;74264;-68
2021/06/14 03:27:36;;;;;;;6.90;2.60;;;;;;;11.72;80.08;101019.09;102152;1117;81506;-69
2021/06/14 03:29:44;;;;;;;4.90;1.90;;;;;;;12.55;79.45;101018.96;102148;1117;67423;-68
2021/06/14 03:31:53;;;;;;;7.00;1.90;;;;;;;13.95;78.90;101007.63;102156;1117;69256;-69
2021/06/14 03:34:01;;;;;;;4.30;1.80;;;;;;;15.26;77.47;101011.13;102089;1118;85417;-68
2021/06/14 03:36:14;;;;;;;6.60;2.70;;;;;;;16.40;75.97;101007.23;102153;1118;73982;-68
2021/06/14 03:38:22;;;;;;;7.70;2.20;;;;;;;17.60;74.55;101007.45;102155;1118;80243;-68
2021/06/14 03:40:30;;;;;;;7.10;2.20;;;;;;;18.63;73.15;101012.25;102158;1117;65441;-68
2021/06/14 03:42:38;;;;;;;3.70;1.60;;;;;;;19.54;71.61;101011.34;102170;1118;68922;-68
2021/06/14 03:44:46;;;;;;;4.50;2.10;;;;;;;20.28;69.55;101008.06;102163;1117;85142;-67
2021/06/14 03:46:54;;;;;;;5.50;1.90;;;;;;;20.93;68.78;101012.29;102168;1118;75781;-67
2021/06/14 03:49:01;;;;;;;7.50;1.80;;;;;;;21.57;66.73;101002.06;102163;1118;80314;-67
2021/06/14 03:51:10;;;;;;;5.10;1.70;;;;;;;21.97;65.26;101013.00;102127;1118;66704;-67
2021/06/14 03:53:18;;;;;;;4.90;2.30;;;;;;;22.33;63.75;101012.50;102170;1118;68304;-65
2021/06/14 03:55:29;;;;;;;6.10;2.70;;;;;;;22.63;61.15;101009.37;102144;1118;84796;-66
2021/06/14 03:57:36;;;;;;;3.30;1.80;;;;;;;23.06;60.74;101014.94;102157;1117;73338;-66
2021/06/14 03:59:44;;;;;;;7.10;2.30;;;;;;;23.01;59.19;101014.04;102162;1117;79905;-66
2021/06/14 04:01:52;;;;;;;3.80;2.00;;;;;;;23.26;57.44;101011.60;102138;1117;67011;-66
2021/06/14 04:04:13;;;;;;;5.40;2.30;;;;;;;23.64;56.69;101011.50;102171;1118;68656;-66
2021/06/14 04:06:21;;;;;;;6.50;1.90;;;;;;;23.91;55.43;101019.76;102153;1117;84768;-67
2021/06/14 04:08:29;;;;;;;4.60;1.70;;;;;;;24.01;53.30;101023.44;102161;1118;75190;-68
2021/06/14 04:10:37;;;;;;;4.20;2.00;;;;;;;24.23;52.50;101025.33;102136;1117;81450;-69
2021/06/14 04:12:44;;;;;;;5.70;2.00;;;;;;;24.17;51.82;101020.86;102137;1117;67955;-69
2021/06/14 04:14:52;;;;;;;4.50;2.40;;;;;;;24.45;51.53;101017.73;102147;1118;69191;-69
2021/06/14 04:17:00;;;;;;;4.30;1.90;;;;;;;24.67;50.57;101026.72;102144;1117;84910;-69
2021/06/14 04:19:07;;;;;;;4.60;1.90;;;;;;;24.92;50.27;101020.54;102149;1118;74517;-67
2021/06/14 04:21:15;;;;;;;5.50;1.70;;;;;;;25.06;48.94;101022.55;102149;1118;81037;-67
2021/06/14 04:23:23;;;;;;;4.80;2.30;;;;;;;25.02;47.86;101026.98;102166;1117;66784;-67
2021/06/14 04:25:31;;;;;;;5.10;2.10;;;;;;;25.31;47.96;101026.52;102162;1117;69424;-66
2021/06/14 04:27:41;;;;;;;5.10;1.80;;;;;;;25.84;47.04;101028.91;102160;1117;83750;-66
2021/06/14 04:29:48;;;;;;;5.30;2.10;;;;;;;26.06;46.40;101025.88;102175;1117;75777;-68
2021/06/14 04:31:56;;;;;;;7.10;2.50;;;;;;;26.31;45.97;101023.14;102172;1117;81291;-68
2021/06/14 04:34:04;;;;;;;4.40;1.50;;;;;;;26.66;45.18;101022.25;102146;1118;66527;-68
2021/06/14 04:36:14;;;;;;;4.70;2.00;;;;;;;26.83;44.82;101014.48;102162;1117;67581;-68
2021/06/14 04:38:22;;;;;;;4.60;2.00;;;;;;;27.11;44.13;101015.77;102182;1118;84798;-66
2021/06/14 04:40:30;;;;;;;5.60;2.30;;;;;;;27.12;42.35;101012.70;102174;1118;73528;-67
2021/06/14 04:42:38;;;;;;;5.50;1.50;;;;;;;27.23;43.55;101007.94;102182;1117;80426;-66
2021/06/14 04:44:46;;;;;;;6.00;1.80;;;;;;;27.37;42.30;101003.42;102153;1117;67212;-68
2021/06/14 04:46:53;;;;;;;5.00;2.00;;;;;;;27.27;41.67;100995.16;102164;1117;67646;-68
2021/06/14 04:49:01;;;;;;;4.20;2.00;;;;;;;27.31;41.55;100999.84;102170;1117;83562;-66
2021/06/14 04:51:11;;;;;;;3.80;1.80;;;;;;;27.26;41.22;101002.66;102168;1118;74803;-67
2021/06/14 04:53:19;;;;;;;4.90;2.00;;;;;;;27.56;40.28;101000.84;102196;1117;80630;-67
2021/06/14 04:55:27;;;;;;;3.90;1.80;;;;;;;27.68;39.88;101009.66;102139;1117;67760;-67
2021/06/14 04:57:34;;;;;;;4.70;2.70;;;;;;;27.75;39.86;101005.44;102132;1117;68236;-67
2021/06/14 04:59:42;;;;;;;4.70;1.80;;;;;;;28.13;39.24;101009.33;102158;1117;85136;-67
2021/06/14 05:01:50;;;;;;;4.30;2.00;;;;;;;28.34;38.47;101010.83;102146;1118;75459;-67
2021/06/14 05:03:58;;;;;;;4.00;1.80;;;;;;;28.75;38.42;101016.00;102147;1118;81576;-67
2021/06/14 05:06:07;;;;;;;4.40;1.90;;;;;;;28.60;37.65;101016.95;102158;1118;66373;-66
2021/06/14 05:08:18;;;;;;;4.30;2.30;;;;;;;28.61;37.93;101013.06;102209;1117;69922;-66
2021/06/14 05:10:26;;;;;;;4.00;1.90;;;;;;;28.59;36.83;101010.59;102147;1117;85747;-66
2021/06/14 05:12:33;;;;;;;3.60;1.40;;;;;;;28.63;36.40;101017.23;102151;1118;74108;-66
2021/06/14 05:14:41;;;;;;;3.50;1.70;;;;;;;28.82;37.50;101013.68;102163;1118;79986;-66
2021/06/14 05:16:52;;;;;;;5.90;1.80;;;;;;;28.96;36.76;101014.64;102156;1118;65301;-58
2021/06/14 05:18:59;;;;;;;4.40;1.70;;;;;;;29.03;36.46;101015.95;102169;1118;69381;-61
2021/06/14 05:21:07;;;;;;;4.30;2.00;;;;;;;29.25;36.38;101018.22;102140;1117;86055;-58
2021/06/14 05:23:18;;;;;;;4.90;1.70;;;;;;;29.33;34.99;101025.90;102191;1117;74219;-57
2021/06/14 05:25:29;;;;;;;4.20;1.60;;;;;;;29.68;35.81;101019.83;102143;1117;81768;-57
2021/06/14 05:27:37;;;;;;;5.30;2.00;;;;;;;29.80;35.76;101031.36;102170;1117;67496;-58
2021/06/14 05:29:44;;;;;;;3.10;1.60;;;;;;;30.27;34.89;101032.30;102143;1118;69195;-57
2021/06/14 05:31:52;;;;;;;4.50;1.80;;;;;;;30.59;34.55;101026.73;102148;1118;84609;-57
2021/06/14 05:34:00;;;;;;;4.90;2.20;;;;;;;30.68;34.32;101033.27;102125;1118;73982;-58
2021/06/14 05:36:09;;;;;;;3.70;1.80;;;;;;;30.86;34.46;101023.13;102151;1118;81591;-59
2021/06/14 05:38:17;;;;;;;5.20;1.60;;;;;;;30.81;33.20;101029.66;102143;1118;66550;-59
2021/06/14 05:40:25;;;;;;;4.80;1.50;;;;;;;30.70;32.41;101028.19;102188;1118;69698;-59
2021/06/14 05:42:33;;;;;;;3.70;1.50;;;;;;;30.58;33.18;101027.02;102148;1118;83421;-58
2021/06/14 05:44:41;;;;;;;3.50;1.90;;;;;;;30.98;33.03;101028.24;102175;1118;74915;-57
2021/06/14 05:46:49;;;;;;;5.70;1.60;;;;;;;31.13;33.04;101033.50;102126;1118;81320;-57
2021/06/14 05:48:57;;;;;;;3.90;1.90;;;;;;;30.87;32.29;101024.80;102136;1117;66844;-58
2021/06/14 05:51:05;;;;;;;4.30;1.60;;;;;;;31.11;31.00;101027.41;102171;1117;68800;-58
2021/06/14 05:53:16;;;;;;;4.40;1.80;;;;;;;30.95;31.17;101033.31;102157;1117;83623;-56
2021/06/14 05:55:24;;;;;;;3.60;1.70;;;;;;;30.50;31.59;101038.88;102167;1118;75837;-57
2021/06/14 05:57:32;;;;;;;5.80;1.80;;;;;;;30.92;31.74;101035.89;102152;1118;81697;-57
2021/06/14 05:59:43;;;;;;;3.10;2.00;;;;;;;31.18;31.78;101030.63;102190;1118;67406;-59
2021/06/14 06:01:52;;;;;;;4.50;1.50;;;;;;;31.00;31.08;101029.59;102162;1118;67659;-59
2021/06/14 06:03:59;;;;;;;3.50;1.70;;;;;;;31.76;31.64;101025.14;102195;1117;84006;-58
2021/06/14 06:06:11;;;;;;;4.70;1.50;;;;;;;31.96;31.11;101021.88;102190;1117;74037;-59
2021/06/14 06:08:18;;;;;;;8.40;2.50;;;;;;;32.38;29.68;101020.56;102174;1118;80997;-61
2021/06/14 06:10:26;;;;;;;4.40;1.60;;;;;;;32.06;29.93;101027.23;102157;1118;67498;-60
2021/06/14 06:12:34;;;;;;;3.50;1.50;;;;;;;31.85;29.83;101024.09;102186;1118;68253;-60
2021/06/14 06:14:43;;;;;;;5.60;1.50;;;;;;;31.83;29.67;101020.80;102191;1118;86298;-59
2021/06/14 06:16:51;;;;;;;3.70;1.60;;;;;;;31.87;29.23;101019.00;102174;1118;74398;-59
2021/06/14 06:18:59;;;;;;;3.10;1.50;;;;;;;31.61;29.43;101015.17;102137;1118;80124;-59
2021/06/14 06:21:07;;;;;;;3.60;1.40;;;;;;;31.65;29.30;101010.59;102176;1118;66726;-61
2021/06/14 06:23:15;;;;;;;5.40;1.70;;;;;;;31.94;29.41;101019.41;102213;1118;68682;-59
2021/06/14 06:25:26;;;;;;;3.30;1.60;;;;;;;32.40;28.55;101012.67;102156;1117;84595;-59
2021/06/14 06:27:35;;;;;;;3.50;1.60;;;;;;;32.31;28.32;101012.61;102178;1117;74807;-60
2021/06/14 06:29:42;;;;;;;3.00;1.30;;;;;;;32.43;27.94;101014.83;102151;1117;79795;-62
2021/06/14 06:31:50;;;;;;;5.40;2.10;;;;;;;32.75;28.46;101014.53;102139;1118;67007;-62
2021/06/14 06:33:58;;;;;;;3.20;1.30;;;;;;;33.12;27.49;101011.27;102192;1117;70134;-58
2021/06/14 06:36:07;;;;;;;3.70;1.20;;;;;;;33.05;28.13;101010.89;102147;1118;85068;-58
2021/06/14 06:38:15;;;;;;;4.60;1.80;;;;;;;33.19;26.64;101011.59;102200;1117;74261;-58
2021/06/14 06:40:23;;;;;;;5.50;1.30;;;;;;;33.19;27.19;101006.00;102151;1118;80882;-57
2021/06/14 06:42:30;;;;;;;2.90;1.50;;;;;;;32.77;27.58;101009.45;102155;1118;66248;-57
2021/06/14 06:44:38;;;;;;;4.30;1.50;;;;;;;32.70;27.19;101011.88;102173;1117;69332;-59
2021/06/14 06:46:46;;;;;;;2.60;1.20;;;;;;;32.59;27.25;101014.13;102169;1117;85047;-59
2021/06/14 06:48:54;;;;;;;2.40;1.30;;;;;;;32.76;27.50;101013.39;102137;1118;74685;-58
2021/06/14 06:51:02;;;;;;;2.00;1.10;;;;;;;32.83;27.55;101022.14;102150;1117;81825;-59
2021/06/14 06:53:10;;;;;;;1.90;1.20;;;;;;;32.64;25.42;101013.16;102161;1117;67214;-58
2021/06/14 06:55:21;;;;;;;3.40;1.50;;;;;;;32.63;26.29;101020.72;102143;1117;68903;-57
2021/06/14 06:57:32;;;;;;;3.60;0.90;;;;;;;33.05;25.60;101010.89;102153;1118;85179;-57
2021/06/14 06:59:43;;;;;;;5.40;0.90;;;;;;;33.34;24.92;101017.89;102153;1117;73897;-57
2021/06/14 07:01:54;;;;;;;2.30;1.10;;;;;;;33.04;24.39;101019.59;102145;1118;81026;-56
2021/06/14 07:04:02;;;;;;;1.50;0.90;;;;;;;32.72;24.11;101017.17;102161;1117;67064;-57
2021/06/14 07:06:09;;;;;;;1.40;0.80;;;;;;;32.77;25.33;101023.45;102172;1118;68147;-57
2021/06/14 07:08:21;;;;;;;1.50;0.80;;;;;;;33.06;24.28;101017.32;102160;1118;84752;-58
2021/06/14 07:10:29;;;;;;;2.10;1.00;;;;;;;33.23;25.24;101017.38;102177;1118;75885;-57
2021/06/14 07:12:38;;;;;;;2.30;0.90;;;;;;;33.23;24.72;101015.41;102135;1118;80599;-57
2021/06/14 07:14:45;;;;;;;1.40;0.90;;;;;;;33.30;24.66;101019.69;102153;1117;66708;-57
2021/06/14 07:16:53;;;;;;;1.80;0.80;;;;;;;33.23;24.55;101012.61;102162;1118;68533;-57
2021/06/14 07:19:05;;;;;;;2.50;1.00;;;;;;;32.90;24.03;101008.52;102125;1118;85343;-57
2021/06/14 07:21:13;;;;;;;2.00;1.20;;;;;;;32.65;24.40;101012.02;102169;1118;74676;-57
2021/06/14 07:23:23;;;;;;;2.60;1.50;;;;;;;32.49;24.47;101013.55;102122;1118;82464;-59
2021/06/14 07:25:31;;;;;;;2.00;0.90;;;;;;;32.10;25.19;101011.49;102142;1118;66886;-59
2021/06/14 07:27:40;;;;;;;1.70;0.80;;;;;;;32.39;25.42;101008.21;102151;1118;67861;-59
2021/06/14 07:29:48;;;;;;;1.40;1.00;;;;;;;32.71;24.93;101010.74;102156;1118;85060;-59
2021/06/14 07:31:58;;;;;;;2.60;1.20;;;;;;;32.62;25.62;101015.46;102159;1118;74727;-59
2021/06/14 07:34:08;;;;;;;2.10;1.20;;;;;;;32.49;24.82;101016.36;102161;1118;81481;-59
2021/06/14 07:36:16;;;;;;;3.30;0.90;;;;;;;32.77;25.38;101012.26;102164;1117;65887;-59
2021/06/14 07:38:26;;;;;;;2.10;1.00;;;;;;;32.89;24.58;101017.22;102117;1118;70212;-57
2021/06/14 07:40:35;;;;;;;3.90;1.10;;;;;;;32.83;25.19;101010.94;102139;1118;84776;-57
2021/06/14 07:42:46;;;;;;;1.90;0.90;;;;;;;32.83;24.38;101005.34;102163;1117;74620;-57
2021/06/14 07:44:54;;;;;;;1.80;0.90;;;;;;;33.04;24.05;101020.43;102142;1117;80308;-57
2021/06/14 07:47:01;;;;;;;2.00;0.90;;;;;;;33.07;24.68;101021.78;102140;1118;65459;-57
2021/06/14 07:49:12;;;;;;;1.40;0.90;;;;;;;32.91;25.18;101020.55;102143;1117;67507;-59
2021/06/14 07:51:20;;;;;;;2.10;0.90;;;;;;;33.02;25.32;101025.50;102151;1117;85687;-59
2021/06/14 07:53:31;;;;;;;2.10;1.50;;;;;;;32.97;24.35;101025.66;102169;1117;76195;-59
2021/06/14 07:55:41;;;;;;;1.40;0.80;;;;;;;33.10;23.79;101023.94;102150;1118;81081;-59
2021/06/14 07:57:49;;;;;;;2.00;1.20;;;;;;;32.47;23.31;101029.84;102163;1117;66061;-59
2021/06/14 07:59:59;;;;;;;3.80;1.00;;;;;;;32.08;24.63;101030.56;102172;1117;69873;-57
2021/06/14 08:02:07;;;;;;;1.60;1.00;;;;;;;32.05;24.87;101028.39;102146;1117;84984;-58
2021/06/14 08:04:15;;;;;;;2.90;0.90;;;;;;;32.05;24.68;101032.02;102178;1117;74499;-58
2021/06/14 08:06:22;;;;;;;1.70;0.80;;;;;;;32.01;24.59;101025.40;102168;1118;81875;-56
2021/06/14 08:08:30;;;;;;;1.30;0.90;;;;;;;31.99;25.36;101019.28;102140;1118;66520;-57
2021/06/14 08:10:41;;;;;;;1.20;0.80;;;;;;;31.79;24.58;101027.31;102162;1118;68305;-57
2021/06/14 08:12:54;;;;;;;2.60;1.10;;;;;;;32.13;25.06;101019.25;102182;1117;83708;-57
2021/06/14 08:15:01;;;;;;;2.30;1.00;;;;;;;32.42;24.35;101013.16;102189;1118;74872;-61
2021/06/14 08:17:09;;;;;;;1.80;0.80;;;;;;;32.12;23.94;101025.97;102155;1118;81948;-60
2021/06/14 08:19:24;;;;;;;1.50;0.90;;;;;;;31.50;23.29;101019.33;102159;1118;65658;-60
2021/06/14 08:21:45;;;;;;;1.90;0.90;;;;;;;31.48;24.06;101028.01;102143;1118;68837;-60
2021/06/14 08:26:42;;;;;;;1.20;0.80;;;;;;;31.59;24.28;101022.21;102130;1117;75495;-57
2021/06/14 08:28:50;;;;;;;1.70;0.80;;;;;;;31.95;24.71;101015.45;102142;1118;81849;-61
2021/06/14 08:30:58;;;;;;;2.00;1.00;;;;;;;31.81;24.01;101014.67;102135;1118;66444;-61
2021/06/14 08:33:08;;;;;;;3.10;0.90;;;;;;;31.74;24.01;101019.88;102175;1118;68663;-61
2021/06/14 08:35:19;;;;;;;0.90;0.70;;;;;;;31.41;24.15;101021.17;102157;1119;85180;-61
2021/06/14 08:37:27;;;;;;;1.40;0.90;;;;;;;31.23;25.00;101022.14;102181;1117;74236;-60
2021/06/14 08:39:36;;;;;;;1.30;0.70;;;;;;;31.11;24.79;101021.83;102142;1118;80830;-59
2021/06/14 08:41:45;;;;;;;2.20;1.10;;;;;;;30.85;25.79;101018.67;102135;1117;66347;-58
2021/06/14 08:43:57;;;;;;;2.10;1.00;;;;;;;31.34;25.30;101021.58;102174;1117;69017;-57
2021/06/14 08:46:05;;;;;;;1.20;0.90;;;;;;;31.36;24.64;101018.50;102151;1117;83923;-57
2021/06/14 08:48:16;;;;;;;2.40;1.00;;;;;;;31.36;25.32;101010.95;102148;1117;74831;-61
2021/06/14 08:50:24;;;;;;;1.80;0.90;;;;;;;31.36;25.14;101019.33;102131;1118;81931;-61
2021/06/14 08:52:35;;;;;;;1.70;0.90;;;;;;;31.05;25.27;101009.10;102146;1117;66736;-62
2021/06/14 08:54:44;;;;;;;1.00;0.70;;;;;;;30.74;25.00;101006.89;102164;1118;68850;-58
2021/06/14 08:56:52;;;;;;;1.80;0.90;;;;;;;30.79;26.37;101012.38;102162;1117;86140;-58
2021/06/14 08:59:00;;;;;;;2.00;0.90;;;;;;;30.94;26.70;101011.28;102176;1117;74949;-58
2021/06/14 09:01:08;;;;;;;1.20;0.90;;;;;;;30.80;26.09;101005.66;102130;1118;81717;-58
2021/06/14 09:03:18;;;;;;;2.60;0.80;;;;;;;30.87;26.51;100999.69;102118;1117;65845;-60
2021/06/14 09:05:28;;;;;;;2.90;0.90;;;;;;;30.44;25.95;101015.83;102162;1118;67797;-61
2021/06/14 09:07:36;;;;;;;2.00;1.10;;;;;;;30.24;26.79;101022.56;102124;1118;84754;-61
2021/06/14 09:09:49;;;;;;;2.10;0.80;;;;;;;30.24;26.49;101018.97;102142;1118;75569;-57
2021/06/14 09:12:01;;;;;;;1.90;0.80;;;;;;;29.86;27.24;101017.38;102165;1118;81729;-58
2021/06/14 09:14:21;;;;;;;1.10;0.70;;;;;;;29.65;28.02;101012.07;102160;1118;67750;-58
2021/06/14 09:16:33;;;;;;;1.80;1.10;;;;;;;29.23;27.80;101014.88;102144;1118;68094;-58
2021/06/14 09:18:42;;;;;;;2.10;0.90;;;;;;;28.94;27.57;101012.16;102120;1117;86453;-60
2021/06/14 09:21:07;;;;;;;2.50;1.00;;;;;;;28.65;28.87;101016.95;102161;1118;76901;-61
2021/06/14 09:23:15;;;;;;;1.60;0.90;;;;;;;28.71;30.38;101012.14;102164;1118;81317;-57
2021/06/14 09:25:23;;;;;;;3.70;0.90;;;;;;;28.52;29.45;101012.87;102128;1118;66727;-57
2021/06/14 09:27:39;;;;;;;2.20;0.90;;;;;;;28.32;29.39;101009.47;102188;1118;67453;-58
2021/06/14 09:29:49;;;;;;;2.40;0.90;;;;;;;27.70;30.23;101012.97;102161;1118;85530;-58
2021/06/14 09:32:02;;;;;;;2.50;0.90;;;;;;;27.66;30.22;101012.70;102191;1118;74516;-58
2021/06/14 09:34:10;;;;;;;3.60;0.90;;;;;;;27.32;30.51;101006.23;102152;1117;82102;-58
2021/06/14 09:36:20;;;;;;;2.30;1.00;;;;;;;27.51;32.02;100998.94;102166;1118;66727;-64
2021/06/14 09:38:29;;;;;;;2.40;0.90;;;;;;;27.10;32.41;101009.39;102183;1118;67878;-74
2021/06/14 09:40:41;;;;;;;3.00;1.10;;;;;;;27.08;32.64;101011.63;102139;1117;83731;-73
2021/06/14 09:42:49;;;;;;;2.40;1.00;;;;;;;27.51;34.19;101002.55;102199;1117;73555;-69
2021/06/14 09:45:07;;;;;;;2.20;1.10;;;;;;;27.75;33.02;101010.98;102160;1118;81853;-61
2021/06/14 09:47:17;;;;;;;2.30;1.00;;;;;;;27.26;31.89;101008.20;102207;1117;66614;-59
2021/06/14 09:49:24;;;;;;;3.90;0.90;;;;;;;27.19;32.92;101001.31;102189;1118;70050;-72
2021/06/14 09:51:34;;;;;;;2.30;0.90;;;;;;;27.02;32.92;100998.05;102154;1118;85169;-69
2021/06/14 09:53:48;;;;;;;2.60;0.90;;;;;;;26.84;32.87;100996.71;102187;1118;74482;-62
2021/06/14 09:55:56;;;;;;;1.40;0.80;;;;;;;26.90;33.76;100988.11;102158;1118;80143;-64
2021/06/14 09:58:16;;;;;;;1.50;0.80;;;;;;;26.45;33.27;101001.23;102143;1118;66804;-65
2021/06/14 10:00:26;;;;;;;4.10;1.60;;;;;;;25.93;33.74;101005.09;102200;1117;68273;-65